sensor_id;sensor_type;location;lat;lon;timestamp;temperature;humidity
51035;DHT22;37062;52.546;13.230;2022-09-03T00:00:20;15.20;99.90
51035;DHT22;37062;52.546;13.230;2022-09-03T00:02:57;15.30;99.90
51035;DHT22;37062;52.546;13.230;2022-09-03T00:05:34;15.30;99.90
51035;DHT22;37062;52.546;13.230;2022-09-03T00:08:07;15.30;99.90
51035;DHT22;37062;52.546;13.230;2022-09-03T00:10:44;15.30;99.90
51035;DHT22;37062;52.546;13.230;2022-09-03T00:13:15;15.30;99.90
51035;DHT22;37062;52.546;13.230;2022-09-03T00:15:44;15.20;99.90
51035;DHT22;37062;52.546;13.230;2022-09-03T00:18:14;15.20;99.90
51035;DHT22;37062;52.546;13.230;2022-09-03T00:20:48;15.30;99.90
51035;DHT22;37062;52.546;13.230;2022-09-03T00:23:20;15.30;99.90
51035;DHT22;37062;52.546;13.230;2022-09-03T00:25:53;15.40;99.90
51035;DHT22;37062;52.546;13.230;2022-09-03T00:28:25;15.50;99.90
51035;DHT22;37062;52.546;13.230;2022-09-03T00:31:06;15.40;99.90
51035;DHT22;37062;52.546;13.230;2022-09-03T00:33:38;15.50;99.90
51035;DHT22;37062;52.546;13.230;2022-09-03T00:36:13;15.60;99.90
51035;DHT22;37062;52.546;13.230;2022-09-03T00:38:41;15.60;99.90
51035;DHT22;37062;52.546;13.230;2022-09-03T00:41:17;15.60;99.90
51035;DHT22;37062;52.546;13.230;2022-09-03T00:44:02;15.60;99.90
51035;DHT22;37062;52.546;13.230;2022-09-03T00:46:40;15.60;99.90
51035;DHT22;37062;52.546;13.230;2022-09-03T00:49:23;15.60;99.90
51035;DHT22;37062;52.546;13.230;2022-09-03T00:52:00;15.60;99.90
51035;DHT22;37062;52.546;13.230;2022-09-03T00:54:37;15.70;99.90
51035;DHT22;37062;52.546;13.230;2022-09-03T00:57:22;15.70;99.90
51035;DHT22;37062;52.546;13.230;2022-09-03T00:59:58;15.70;99.90
51035;DHT22;37062;52.546;13.230;2022-09-03T01:02:39;15.70;99.90
51035;DHT22;37062;52.546;13.230;2022-09-03T01:05:23;15.80;99.90
51035;DHT22;37062;52.546;13.230;2022-09-03T01:07:58;15.80;99.90
51035;DHT22;37062;52.546;13.230;2022-09-03T01:10:32;15.80;99.90
51035;DHT22;37062;52.546;13.230;2022-09-03T01:13:09;15.80;99.90
51035;DHT22;37062;52.546;13.230;2022-09-03T01:15:44;15.80;99.90
51035;DHT22;37062;52.546;13.230;2022-09-03T01:18:22;15.80;99.90
51035;DHT22;37062;52.546;13.230;2022-09-03T01:21:11;15.70;99.90
51035;DHT22;37062;52.546;13.230;2022-09-03T01:24:11;15.70;99.90
51035;DHT22;37062;52.546;13.230;2022-09-03T01:26:59;15.70;99.90
51035;DHT22;37062;52.546;13.230;2022-09-03T01:29:32;15.70;99.90
51035;DHT22;37062;52.546;13.230;2022-09-03T01:32:06;15.60;99.90
51035;DHT22;37062;52.546;13.230;2022-09-03T01:34:47;15.70;99.90
51035;DHT22;37062;52.546;13.230;2022-09-03T01:37:25;15.70;99.90
51035;DHT22;37062;52.546;13.230;2022-09-03T01:40:02;15.60;99.90
51035;DHT22;37062;52.546;13.230;2022-09-03T01:42:45;15.60;99.90
51035;DHT22;37062;52.546;13.230;2022-09-03T01:45:31;15.60;99.90
51035;DHT22;37062;52.546;13.230;2022-09-03T01:48:17;15.50;99.90
51035;DHT22;37062;52.546;13.230;2022-09-03T01:50:49;15.50;99.90
51035;DHT22;37062;52.546;13.230;2022-09-03T01:53:31;15.50;99.90
51035;DHT22;37062;52.546;13.230;2022-09-03T01:56:16;15.50;99.90
51035;DHT22;37062;52.546;13.230;2022-09-03T01:58:55;15.40;99.90
51035;DHT22;37062;52.546;13.230;2022-09-03T02:01:32;15.40;99.90
51035;DHT22;37062;52.546;13.230;2022-09-03T02:04:01;15.40;99.90
51035;DHT22;37062;52.546;13.230;2022-09-03T02:06:29;15.40;99.90
51035;DHT22;37062;52.546;13.230;2022-09-03T02:08:57;15.30;99.90
51035;DHT22;37062;52.546;13.230;2022-09-03T02:11:25;15.20;99.90
51035;DHT22;37062;52.546;13.230;2022-09-03T02:13:55;15.20;99.90
51035;DHT22;37062;52.546;13.230;2022-09-03T02:16:30;15.10;99.90
51035;DHT22;37062;52.546;13.230;2022-09-03T02:19:00;15.00;99.90
51035;DHT22;37062;52.546;13.230;2022-09-03T02:21:33;14.90;99.90
51035;DHT22;37062;52.546;13.230;2022-09-03T02:24:03;14.90;99.90
51035;DHT22;37062;52.546;13.230;2022-09-03T02:26:31;14.80;99.90
51035;DHT22;37062;52.546;13.230;2022-09-03T02:29:00;14.70;99.90
51035;DHT22;37062;52.546;13.230;2022-09-03T02:31:30;14.60;99.90
51035;DHT22;37062;52.546;13.230;2022-09-03T02:33:58;14.60;99.90
51035;DHT22;37062;52.546;13.230;2022-09-03T02:36:28;14.60;99.90
51035;DHT22;37062;52.546;13.230;2022-09-03T02:38:57;14.50;99.90
51035;DHT22;37062;52.546;13.230;2022-09-03T02:41:24;14.50;99.90
51035;DHT22;37062;52.546;13.230;2022-09-03T02:43:57;14.50;99.90
51035;DHT22;37062;52.546;13.230;2022-09-03T02:46:31;14.40;99.90
51035;DHT22;37062;52.546;13.230;2022-09-03T02:48:59;14.40;99.90
51035;DHT22;37062;52.546;13.230;2022-09-03T02:51:31;14.30;99.90
51035;DHT22;37062;52.546;13.230;2022-09-03T02:53:59;14.20;99.90
51035;DHT22;37062;52.546;13.230;2022-09-03T02:56:26;14.10;99.90
51035;DHT22;37062;52.546;13.230;2022-09-03T02:58:54;14.00;99.90
51035;DHT22;37062;52.546;13.230;2022-09-03T03:01:22;14.00;99.90
51035;DHT22;37062;52.546;13.230;2022-09-03T03:03:51;13.90;99.90
51035;DHT22;37062;52.546;13.230;2022-09-03T03:06:19;13.90;99.90
51035;DHT22;37062;52.546;13.230;2022-09-03T03:08:47;13.90;99.90
51035;DHT22;37062;52.546;13.230;2022-09-03T03:11:15;13.90;99.90
51035;DHT22;37062;52.546;13.230;2022-09-03T03:13:43;13.80;99.90
51035;DHT22;37062;52.546;13.230;2022-09-03T03:16:13;13.80;99.90
51035;DHT22;37062;52.546;13.230;2022-09-03T03:18:41;13.70;99.90
51035;DHT22;37062;52.546;13.230;2022-09-03T03:21:14;13.70;99.90
51035;DHT22;37062;52.546;13.230;2022-09-03T03:23:42;13.70;99.90
51035;DHT22;37062;52.546;13.230;2022-09-03T03:26:12;13.60;99.90
51035;DHT22;37062;52.546;13.230;2022-09-03T03:28:40;13.60;99.90
51035;DHT22;37062;52.546;13.230;2022-09-03T03:31:09;13.50;99.90
51035;DHT22;37062;52.546;13.230;2022-09-03T03:33:37;13.50;99.90
51035;DHT22;37062;52.546;13.230;2022-09-03T03:36:06;13.50;99.90
51035;DHT22;37062;52.546;13.230;2022-09-03T03:38:35;13.40;99.90
51035;DHT22;37062;52.546;13.230;2022-09-03T03:41:07;13.40;99.90
51035;DHT22;37062;52.546;13.230;2022-09-03T03:43:34;13.40;99.90
51035;DHT22;37062;52.546;13.230;2022-09-03T03:46:08;13.40;99.90
51035;DHT22;37062;52.546;13.230;2022-09-03T03:48:37;13.40;99.90
51035;DHT22;37062;52.546;13.230;2022-09-03T03:51:09;13.40;99.90
51035;DHT22;37062;52.546;13.230;2022-09-03T03:53:38;13.40;99.90
51035;DHT22;37062;52.546;13.230;2022-09-03T03:56:09;13.50;99.90
51035;DHT22;37062;52.546;13.230;2022-09-03T03:58:39;13.50;99.90
51035;DHT22;37062;52.546;13.230;2022-09-03T04:01:09;13.50;99.90
51035;DHT22;37062;52.546;13.230;2022-09-03T04:03:37;13.40;99.90
51035;DHT22;37062;52.546;13.230;2022-09-03T04:06:06;13.40;99.90
51035;DHT22;37062;52.546;13.230;2022-09-03T04:08:35;13.40;99.90
51035;DHT22;37062;52.546;13.230;2022-09-03T04:11:10;13.30;99.90
51035;DHT22;37062;52.546;13.230;2022-09-03T04:13:39;13.30;99.90
51035;DHT22;37062;52.546;13.230;2022-09-03T04:16:10;13.40;99.90
51035;DHT22;37062;52.546;13.230;2022-09-03T04:18:38;13.40;99.90
51035;DHT22;37062;52.546;13.230;2022-09-03T04:21:10;13.40;99.90
51035;DHT22;37062;52.546;13.230;2022-09-03T04:23:40;13.40;99.90
51035;DHT22;37062;52.546;13.230;2022-09-03T04:26:11;13.40;99.90
51035;DHT22;37062;52.546;13.230;2022-09-03T04:28:39;13.40;99.90
51035;DHT22;37062;52.546;13.230;2022-09-03T04:31:08;13.50;99.90
51035;DHT22;37062;52.546;13.230;2022-09-03T04:33:36;13.50;99.90
51035;DHT22;37062;52.546;13.230;2022-09-03T04:36:08;13.40;99.90
51035;DHT22;37062;52.546;13.230;2022-09-03T04:38:40;13.40;99.90
51035;DHT22;37062;52.546;13.230;2022-09-03T04:41:11;13.50;99.90
51035;DHT22;37062;52.546;13.230;2022-09-03T04:43:39;13.50;99.90
51035;DHT22;37062;52.546;13.230;2022-09-03T04:46:09;13.50;99.90
51035;DHT22;37062;52.546;13.230;2022-09-03T04:48:38;13.50;99.90
51035;DHT22;37062;52.546;13.230;2022-09-03T04:51:10;13.50;99.90
51035;DHT22;37062;52.546;13.230;2022-09-03T04:53:40;13.50;99.90
51035;DHT22;37062;52.546;13.230;2022-09-03T04:56:13;13.60;99.90
51035;DHT22;37062;52.546;13.230;2022-09-03T04:58:41;13.60;99.90
51035;DHT22;37062;52.546;13.230;2022-09-03T05:01:09;13.60;99.90
51035;DHT22;37062;52.546;13.230;2022-09-03T05:03:37;13.70;99.90
51035;DHT22;37062;52.546;13.230;2022-09-03T05:06:08;13.70;99.90
51035;DHT22;37062;52.546;13.230;2022-09-03T05:08:36;13.80;99.90
51035;DHT22;37062;52.546;13.230;2022-09-03T05:11:09;13.90;99.90
51035;DHT22;37062;52.546;13.230;2022-09-03T05:13:38;14.00;99.90
51035;DHT22;37062;52.546;13.230;2022-09-03T05:16:10;14.40;99.90
51035;DHT22;37062;52.546;13.230;2022-09-03T05:18:38;14.70;99.90
51035;DHT22;37062;52.546;13.230;2022-09-03T05:21:09;14.90;99.90
51035;DHT22;37062;52.546;13.230;2022-09-03T05:23:38;15.00;99.90
51035;DHT22;37062;52.546;13.230;2022-09-03T05:26:10;15.20;99.90
51035;DHT22;37062;52.546;13.230;2022-09-03T05:28:41;15.40;99.90
51035;DHT22;37062;52.546;13.230;2022-09-03T05:31:10;15.60;99.90
51035;DHT22;37062;52.546;13.230;2022-09-03T05:33:39;15.80;99.90
51035;DHT22;37062;52.546;13.230;2022-09-03T05:36:08;16.00;99.90
51035;DHT22;37062;52.546;13.230;2022-09-03T05:38:36;16.00;99.90
51035;DHT22;37062;52.546;13.230;2022-09-03T05:41:11;16.00;99.90
51035;DHT22;37062;52.546;13.230;2022-09-03T05:43:41;16.20;99.90
51035;DHT22;37062;52.546;13.230;2022-09-03T05:46:10;16.30;99.90
51035;DHT22;37062;52.546;13.230;2022-09-03T05:48:39;16.50;99.90
51035;DHT22;37062;52.546;13.230;2022-09-03T05:51:09;16.70;99.90
51035;DHT22;37062;52.546;13.230;2022-09-03T05:53:38;16.90;99.90
51035;DHT22;37062;52.546;13.230;2022-09-03T05:56:13;17.10;99.90
51035;DHT22;37062;52.546;13.230;2022-09-03T05:58:45;17.20;99.90
51035;DHT22;37062;52.546;13.230;2022-09-03T06:01:20;17.20;99.90
51035;DHT22;37062;52.546;13.230;2022-09-03T06:03:53;17.30;99.90
51035;DHT22;37062;52.546;13.230;2022-09-03T06:06:21;17.40;99.90
51035;DHT22;37062;52.546;13.230;2022-09-03T06:08:51;17.30;99.90
51035;DHT22;37062;52.546;13.230;2022-09-03T06:11:25;17.50;99.90
51035;DHT22;37062;52.546;13.230;2022-09-03T06:13:57;17.80;99.90
51035;DHT22;37062;52.546;13.230;2022-09-03T06:16:27;17.80;99.90
51035;DHT22;37062;52.546;13.230;2022-09-03T06:18:54;17.40;99.90
51035;DHT22;37062;52.546;13.230;2022-09-03T06:21:25;17.10;99.90
51035;DHT22;37062;52.546;13.230;2022-09-03T06:23:54;17.00;99.90
51035;DHT22;37062;52.546;13.230;2022-09-03T06:26:23;17.10;99.90
51035;DHT22;37062;52.546;13.230;2022-09-03T06:28:53;17.10;99.90
51035;DHT22;37062;52.546;13.230;2022-09-03T06:31:23;17.00;99.90
51035;DHT22;37062;52.546;13.230;2022-09-03T06:33:50;16.80;99.90
51035;DHT22;37062;52.546;13.230;2022-09-03T06:36:24;16.60;99.90
51035;DHT22;37062;52.546;13.230;2022-09-03T06:38:53;16.70;99.90
51035;DHT22;37062;52.546;13.230;2022-09-03T06:41:23;16.70;99.90
51035;DHT22;37062;52.546;13.230;2022-09-03T06:43:52;16.70;99.90
51035;DHT22;37062;52.546;13.230;2022-09-03T06:46:22;16.80;99.90
51035;DHT22;37062;52.546;13.230;2022-09-03T06:48:50;16.90;99.90
51035;DHT22;37062;52.546;13.230;2022-09-03T06:51:20;17.00;99.90
51035;DHT22;37062;52.546;13.230;2022-09-03T06:53:51;16.90;99.90
51035;DHT22;37062;52.546;13.230;2022-09-03T06:56:21;16.70;99.90
51035;DHT22;37062;52.546;13.230;2022-09-03T06:58:52;16.60;99.90
51035;DHT22;37062;52.546;13.230;2022-09-03T07:01:27;16.50;99.90
51035;DHT22;37062;52.546;13.230;2022-09-03T07:03:57;16.50;99.90
51035;DHT22;37062;52.546;13.230;2022-09-03T07:06:30;16.50;99.90
51035;DHT22;37062;52.546;13.230;2022-09-03T07:08:58;16.60;99.90
51035;DHT22;37062;52.546;13.230;2022-09-03T07:11:27;16.70;99.90
51035;DHT22;37062;52.546;13.230;2022-09-03T07:13:57;16.90;99.90
51035;DHT22;37062;52.546;13.230;2022-09-03T07:16:28;16.90;99.90
51035;DHT22;37062;52.546;13.230;2022-09-03T07:18:56;17.00;99.90
51035;DHT22;37062;52.546;13.230;2022-09-03T07:21:25;17.20;99.90
51035;DHT22;37062;52.546;13.230;2022-09-03T07:23:54;17.40;99.90
51035;DHT22;37062;52.546;13.230;2022-09-03T07:26:26;17.70;99.90
51035;DHT22;37062;52.546;13.230;2022-09-03T07:28:54;17.90;99.90
51035;DHT22;37062;52.546;13.230;2022-09-03T07:31:23;18.10;99.90
51035;DHT22;37062;52.546;13.230;2022-09-03T07:33:54;18.10;99.90
51035;DHT22;37062;52.546;13.230;2022-09-03T07:36:23;18.00;99.90
51035;DHT22;37062;52.546;13.230;2022-09-03T07:38:54;17.90;99.90
51035;DHT22;37062;52.546;13.230;2022-09-03T07:41:26;18.00;99.90
51035;DHT22;37062;52.546;13.230;2022-09-03T07:43:54;18.00;99.90
51035;DHT22;37062;52.546;13.230;2022-09-03T07:46:24;18.10;99.90
51035;DHT22;37062;52.546;13.230;2022-09-03T07:48:54;18.10;99.90
51035;DHT22;37062;52.546;13.230;2022-09-03T07:51:27;18.20;99.90
51035;DHT22;37062;52.546;13.230;2022-09-03T07:53:57;18.50;99.90
51035;DHT22;37062;52.546;13.230;2022-09-03T07:56:25;18.60;99.90
51035;DHT22;37062;52.546;13.230;2022-09-03T07:58:53;18.50;99.90
51035;DHT22;37062;52.546;13.230;2022-09-03T08:01:22;18.60;99.90
51035;DHT22;37062;52.546;13.230;2022-09-03T08:03:51;18.70;99.90
51035;DHT22;37062;52.546;13.230;2022-09-03T08:06:22;18.70;99.90
51035;DHT22;37062;52.546;13.230;2022-09-03T08:08:54;18.80;99.90
51035;DHT22;37062;52.546;13.230;2022-09-03T08:11:30;19.00;99.90
51035;DHT22;37062;52.546;13.230;2022-09-03T08:13:59;19.20;99.90
51035;DHT22;37062;52.546;13.230;2022-09-03T08:16:28;19.40;99.90
51035;DHT22;37062;52.546;13.230;2022-09-03T08:18:56;19.50;99.90
51035;DHT22;37062;52.546;13.230;2022-09-03T08:21:26;19.50;99.90
51035;DHT22;37062;52.546;13.230;2022-09-03T08:23:55;19.50;99.90
51035;DHT22;37062;52.546;13.230;2022-09-03T08:26:32;19.60;99.90
51035;DHT22;37062;52.546;13.230;2022-09-03T08:29:00;19.90;99.90
51035;DHT22;37062;52.546;13.230;2022-09-03T08:31:28;20.20;99.90
51035;DHT22;37062;52.546;13.230;2022-09-03T08:33:58;20.70;99.90
51035;DHT22;37062;52.546;13.230;2022-09-03T08:36:34;21.20;99.90
51035;DHT22;37062;52.546;13.230;2022-09-03T08:39:04;22.10;99.90
51035;DHT22;37062;52.546;13.230;2022-09-03T08:41:47;22.90;99.90
51035;DHT22;37062;52.546;13.230;2022-09-03T08:44:24;23.80;99.90
51035;DHT22;37062;52.546;13.230;2022-09-03T08:46:57;24.40;99.90
51035;DHT22;37062;52.546;13.230;2022-09-03T08:49:32;25.00;99.90
51035;DHT22;37062;52.546;13.230;2022-09-03T08:52:05;25.60;99.90
51035;DHT22;37062;52.546;13.230;2022-09-03T08:54:36;26.00;99.90
51035;DHT22;37062;52.546;13.230;2022-09-03T08:57:05;26.50;99.90
51035;DHT22;37062;52.546;13.230;2022-09-03T08:59:34;26.30;99.90
51035;DHT22;37062;52.546;13.230;2022-09-03T09:02:15;26.20;99.90
51035;DHT22;37062;52.546;13.230;2022-09-03T09:04:54;26.60;99.90
51035;DHT22;37062;52.546;13.230;2022-09-03T09:07:29;26.60;99.90
51035;DHT22;37062;52.546;13.230;2022-09-03T09:10:04;25.90;99.90
51035;DHT22;37062;52.546;13.230;2022-09-03T09:12:43;26.30;99.90
51035;DHT22;37062;52.546;13.230;2022-09-03T09:15:27;27.20;99.90
51035;DHT22;37062;52.546;13.230;2022-09-03T09:18:05;27.60;99.90
51035;DHT22;37062;52.546;13.230;2022-09-03T09:20:40;27.20;99.90
51035;DHT22;37062;52.546;13.230;2022-09-03T09:23:13;27.10;99.90
51035;DHT22;37062;52.546;13.230;2022-09-03T09:25:46;26.60;99.90
51035;DHT22;37062;52.546;13.230;2022-09-03T09:28:17;26.50;99.90
51035;DHT22;37062;52.546;13.230;2022-09-03T09:30:46;26.50;99.90
51035;DHT22;37062;52.546;13.230;2022-09-03T09:33:14;26.10;99.90
51035;DHT22;37062;52.546;13.230;2022-09-03T09:35:43;25.80;99.90
51035;DHT22;37062;52.546;13.230;2022-09-03T09:38:12;26.30;99.90
51035;DHT22;37062;52.546;13.230;2022-09-03T09:40:41;27.00;99.90
51035;DHT22;37062;52.546;13.230;2022-09-03T09:43:11;27.90;99.90
51035;DHT22;37062;52.546;13.230;2022-09-03T09:45:41;28.10;99.90
51035;DHT22;37062;52.546;13.230;2022-09-03T09:48:16;27.60;99.90
51035;DHT22;37062;52.546;13.230;2022-09-03T09:50:44;26.90;99.90
51035;DHT22;37062;52.546;13.230;2022-09-03T09:53:17;26.80;99.90
51035;DHT22;37062;52.546;13.230;2022-09-03T09:55:51;26.80;99.90
51035;DHT22;37062;52.546;13.230;2022-09-03T09:58:21;26.70;99.90
51035;DHT22;37062;52.546;13.230;2022-09-03T10:01:01;26.30;99.90
51035;DHT22;37062;52.546;13.230;2022-09-03T10:03:33;25.80;99.90
51035;DHT22;37062;52.546;13.230;2022-09-03T10:06:04;25.20;99.90
51035;DHT22;37062;52.546;13.230;2022-09-03T10:09:14;24.80;99.90
51035;DHT22;37062;52.546;13.230;2022-09-03T10:11:44;24.60;99.90
51035;DHT22;37062;52.546;13.230;2022-09-03T10:14:23;24.30;99.90
51035;DHT22;37062;52.546;13.230;2022-09-03T10:16:58;24.60;99.90
51035;DHT22;37062;52.546;13.230;2022-09-03T10:19:35;24.60;99.90
51035;DHT22;37062;52.546;13.230;2022-09-03T10:22:13;24.30;99.90
51035;DHT22;37062;52.546;13.230;2022-09-03T10:24:51;23.80;99.90
51035;DHT22;37062;52.546;13.230;2022-09-03T10:27:21;23.40;99.90
51035;DHT22;37062;52.546;13.230;2022-09-03T10:29:49;23.10;99.90
51035;DHT22;37062;52.546;13.230;2022-09-03T10:32:30;22.70;99.90
51035;DHT22;37062;52.546;13.230;2022-09-03T10:35:05;22.40;99.90
51035;DHT22;37062;52.546;13.230;2022-09-03T10:37:40;22.40;99.90
51035;DHT22;37062;52.546;13.230;2022-09-03T10:40:18;22.50;99.90
51035;DHT22;37062;52.546;13.230;2022-09-03T10:43:19;22.70;99.90
51035;DHT22;37062;52.546;13.230;2022-09-03T10:45:59;22.70;99.90
51035;DHT22;37062;52.546;13.230;2022-09-03T10:49:23;22.40;99.90
51035;DHT22;37062;52.546;13.230;2022-09-03T10:52:02;22.50;99.90
51035;DHT22;37062;52.546;13.230;2022-09-03T10:54:45;22.50;99.90
51035;DHT22;37062;52.546;13.230;2022-09-03T10:57:25;22.50;99.90
51035;DHT22;37062;52.546;13.230;2022-09-03T11:00:01;22.50;99.90
51035;DHT22;37062;52.546;13.230;2022-09-03T11:02:45;22.50;99.90
51035;DHT22;37062;52.546;13.230;2022-09-03T11:05:17;22.50;99.90
51035;DHT22;37062;52.546;13.230;2022-09-03T11:07:50;22.30;99.90
51035;DHT22;37062;52.546;13.230;2022-09-03T11:10:21;22.20;99.90
51035;DHT22;37062;52.546;13.230;2022-09-03T11:13:01;22.40;99.90
51035;DHT22;37062;52.546;13.230;2022-09-03T11:15:32;22.70;99.90
51035;DHT22;37062;52.546;13.230;2022-09-03T11:18:06;22.70;99.90
51035;DHT22;37062;52.546;13.230;2022-09-03T11:20:34;22.60;99.90
51035;DHT22;37062;52.546;13.230;2022-09-03T11:23:03;22.70;99.90
51035;DHT22;37062;52.546;13.230;2022-09-03T11:25:35;22.60;99.90
51035;DHT22;37062;52.546;13.230;2022-09-03T11:28:14;22.50;99.90
51035;DHT22;37062;52.546;13.230;2022-09-03T11:30:51;22.60;99.90
51035;DHT22;37062;52.546;13.230;2022-09-03T11:33:23;22.60;99.90
51035;DHT22;37062;52.546;13.230;2022-09-03T11:35:56;22.60;99.90
51035;DHT22;37062;52.546;13.230;2022-09-03T11:38:27;22.60;99.90
51035;DHT22;37062;52.546;13.230;2022-09-03T11:40:59;22.70;99.90
51035;DHT22;37062;52.546;13.230;2022-09-03T11:43:30;22.80;99.90
51035;DHT22;37062;52.546;13.230;2022-09-03T11:46:26;22.90;99.90
51035;DHT22;37062;52.546;13.230;2022-09-03T11:48:55;22.80;99.90
51035;DHT22;37062;52.546;13.230;2022-09-03T11:51:31;22.60;99.90
51035;DHT22;37062;52.546;13.230;2022-09-03T11:54:02;22.70;99.90
51035;DHT22;37062;52.546;13.230;2022-09-03T11:56:31;22.70;99.90
51035;DHT22;37062;52.546;13.230;2022-09-03T11:59:14;22.80;99.90
51035;DHT22;37062;52.546;13.230;2022-09-03T12:01:46;22.80;99.90
51035;DHT22;37062;52.546;13.230;2022-09-03T12:04:21;22.80;99.90
51035;DHT22;37062;52.546;13.230;2022-09-03T12:07:18;22.90;99.90
51035;DHT22;37062;52.546;13.230;2022-09-03T12:10:01;22.70;99.90
51035;DHT22;37062;52.546;13.230;2022-09-03T12:12:42;22.70;99.90
51035;DHT22;37062;52.546;13.230;2022-09-03T12:15:26;22.70;99.90
51035;DHT22;37062;52.546;13.230;2022-09-03T12:17:58;22.90;99.90
51035;DHT22;37062;52.546;13.230;2022-09-03T12:21:00;22.80;99.90
51035;DHT22;37062;52.546;13.230;2022-09-03T12:23:30;22.70;99.90
51035;DHT22;37062;52.546;13.230;2022-09-03T12:26:02;22.70;99.90
51035;DHT22;37062;52.546;13.230;2022-09-03T12:28:34;22.70;99.90
51035;DHT22;37062;52.546;13.230;2022-09-03T12:31:22;22.60;99.90
51035;DHT22;37062;52.546;13.230;2022-09-03T12:33:52;22.60;99.90
51035;DHT22;37062;52.546;13.230;2022-09-03T12:36:36;22.70;99.90
51035;DHT22;37062;52.546;13.230;2022-09-03T12:39:07;22.70;99.90
51035;DHT22;37062;52.546;13.230;2022-09-03T12:41:35;22.60;99.90
51035;DHT22;37062;52.546;13.230;2022-09-03T12:44:03;22.60;99.90
51035;DHT22;37062;52.546;13.230;2022-09-03T12:46:32;22.70;99.90
51035;DHT22;37062;52.546;13.230;2022-09-03T12:49:01;22.80;99.90
51035;DHT22;37062;52.546;13.230;2022-09-03T12:51:32;22.80;99.90
51035;DHT22;37062;52.546;13.230;2022-09-03T12:54:01;22.70;99.90
51035;DHT22;37062;52.546;13.230;2022-09-03T12:56:31;22.60;99.90
51035;DHT22;37062;52.546;13.230;2022-09-03T12:59:03;22.60;99.90
51035;DHT22;37062;52.546;13.230;2022-09-03T13:01:41;22.60;99.90
51035;DHT22;37062;52.546;13.230;2022-09-03T13:04:12;22.90;99.90
51035;DHT22;37062;52.546;13.230;2022-09-03T13:06:47;23.00;99.90
51035;DHT22;37062;52.546;13.230;2022-09-03T13:09:19;22.90;99.90
51035;DHT22;37062;52.546;13.230;2022-09-03T13:11:48;22.80;99.90
51035;DHT22;37062;52.546;13.230;2022-09-03T13:14:17;22.70;99.90
51035;DHT22;37062;52.546;13.230;2022-09-03T13:17:15;22.70;99.90
51035;DHT22;37062;52.546;13.230;2022-09-03T13:20:04;22.80;99.90
51035;DHT22;37062;52.546;13.230;2022-09-03T13:22:44;22.90;99.90
51035;DHT22;37062;52.546;13.230;2022-09-03T13:25:23;23.20;99.90
51035;DHT22;37062;52.546;13.230;2022-09-03T13:27:58;23.30;99.90
51035;DHT22;37062;52.546;13.230;2022-09-03T13:30:35;23.30;99.90
51035;DHT22;37062;52.546;13.230;2022-09-03T13:33:12;23.40;99.90
51035;DHT22;37062;52.546;13.230;2022-09-03T13:35:46;23.30;99.90
51035;DHT22;37062;52.546;13.230;2022-09-03T13:38:22;23.20;99.90
51035;DHT22;37062;52.546;13.230;2022-09-03T13:40:55;23.20;99.90
51035;DHT22;37062;52.546;13.230;2022-09-03T13:43:31;23.20;99.90
51035;DHT22;37062;52.546;13.230;2022-09-03T13:46:22;23.10;99.90
51035;DHT22;37062;52.546;13.230;2022-09-03T13:48:58;23.20;99.90
51035;DHT22;37062;52.546;13.230;2022-09-03T13:51:49;23.20;99.90
51035;DHT22;37062;52.546;13.230;2022-09-03T13:54:22;22.90;99.90
51035;DHT22;37062;52.546;13.230;2022-09-03T13:56:56;22.80;99.90
51035;DHT22;37062;52.546;13.230;2022-09-03T13:59:34;22.80;99.90
51035;DHT22;37062;52.546;13.230;2022-09-03T14:02:19;22.90;99.90
51035;DHT22;37062;52.546;13.230;2022-09-03T14:05:00;22.80;99.90
51035;DHT22;37062;52.546;13.230;2022-09-03T14:07:46;22.70;99.90
51035;DHT22;37062;52.546;13.230;2022-09-03T14:10:22;22.80;99.90
51035;DHT22;37062;52.546;13.230;2022-09-03T14:13:01;22.80;99.90
51035;DHT22;37062;52.546;13.230;2022-09-03T14:15:34;22.90;99.90
51035;DHT22;37062;52.546;13.230;2022-09-03T14:18:12;22.90;99.90
51035;DHT22;37062;52.546;13.230;2022-09-03T14:20:45;22.90;99.90
51035;DHT22;37062;52.546;13.230;2022-09-03T14:23:28;22.90;99.90
51035;DHT22;37062;52.546;13.230;2022-09-03T14:26:02;22.90;99.90
51035;DHT22;37062;52.546;13.230;2022-09-03T14:29:15;23.00;99.90
51035;DHT22;37062;52.546;13.230;2022-09-03T14:32:22;22.90;99.90
51035;DHT22;37062;52.546;13.230;2022-09-03T14:41:30;22.90;99.90
51035;DHT22;37062;52.546;13.230;2022-09-03T14:44:11;23.00;99.90
51035;DHT22;37062;52.546;13.230;2022-09-03T14:46:52;23.00;99.90
51035;DHT22;37062;52.546;13.230;2022-09-03T14:49:46;23.10;99.90
51035;DHT22;37062;52.546;13.230;2022-09-03T14:52:37;23.10;99.90
51035;DHT22;37062;52.546;13.230;2022-09-03T14:55:30;23.00;99.90
51035;DHT22;37062;52.546;13.230;2022-09-03T14:58:20;22.90;99.90
51035;DHT22;37062;52.546;13.230;2022-09-03T15:00:56;22.70;99.90
51035;DHT22;37062;52.546;13.230;2022-09-03T15:03:49;22.60;99.90
51035;DHT22;37062;52.546;13.230;2022-09-03T15:06:47;22.70;99.90
51035;DHT22;37062;52.546;13.230;2022-09-03T15:09:24;22.80;99.90
51035;DHT22;37062;52.546;13.230;2022-09-03T15:11:56;22.90;99.90
51035;DHT22;37062;52.546;13.230;2022-09-03T15:14:34;23.10;99.90
51035;DHT22;37062;52.546;13.230;2022-09-03T15:23:16;23.50;99.90
51035;DHT22;37062;52.546;13.230;2022-09-03T15:26:29;23.50;99.90
51035;DHT22;37062;52.546;13.230;2022-09-03T15:32:01;23.30;99.90
51035;DHT22;37062;52.546;13.230;2022-09-03T15:34:53;23.20;99.90
51035;DHT22;37062;52.546;13.230;2022-09-03T15:37:27;23.10;99.90
51035;DHT22;37062;52.546;13.230;2022-09-03T15:40:01;23.00;99.90
51035;DHT22;37062;52.546;13.230;2022-09-03T15:42:29;22.70;99.90
51035;DHT22;37062;52.546;13.230;2022-09-03T15:45:03;22.60;99.90
51035;DHT22;37062;52.546;13.230;2022-09-03T15:47:36;22.60;99.90
51035;DHT22;37062;52.546;13.230;2022-09-03T15:50:15;22.60;99.90
51035;DHT22;37062;52.546;13.230;2022-09-03T15:52:58;22.50;99.90
51035;DHT22;37062;52.546;13.230;2022-09-03T15:55:32;22.50;99.90
51035;DHT22;37062;52.546;13.230;2022-09-03T15:58:08;22.40;99.90
51035;DHT22;37062;52.546;13.230;2022-09-03T16:00:52;22.50;99.90
51035;DHT22;37062;52.546;13.230;2022-09-03T16:03:36;22.50;99.90
51035;DHT22;37062;52.546;13.230;2022-09-03T16:06:27;22.50;99.90
51035;DHT22;37062;52.546;13.230;2022-09-03T16:09:08;22.60;99.90
51035;DHT22;37062;52.546;13.230;2022-09-03T16:11:51;22.50;99.90
51035;DHT22;37062;52.546;13.230;2022-09-03T16:14:26;22.40;99.90